KPIE/PIE METAR and TAF weather

Enter ICAO airport designator
Station Type Date Time Source
KPIE METAR 2018/12/19 08:53 UTC NOAA

KPIE 190853Z AUTO 06005KT 10SM CLR 14/11 A3006 RMK AO2 SLP177 T01440106 58004 $


Station Type Date Time Source
KPIE Decoded METAR 2018/12/19 08:53 UTC NOAA

ST PETERSBURG/CLEARWATER, FL, United States (KPIE) 27-55N 82-41W 4M
Dec 19, 2018 - 03:53 AM EST / 2018.12.19 0853 UTC
Wind: from the ENE (060 degrees) at 6 MPH (5 KT):0
Visibility: 10 mile(s):0
Sky conditions: clear
Temperature: 57.9 F (14.4 C)
Dew Point: 51.1 F (10.6 C)
Relative Humidity: 77%
Pressure (altimeter): 30.06 in. Hg (1017 hPa)
Pressure tendency: 0.01 inches (0.4 hPa) lower than three hours ago
ob: KPIE 190853Z AUTO 06005KT 10SM CLR 14/11 A3006 RMK AO2 SLP177 T01440106 58004
cycle: 9

Station Type Date Time Source
KPIE TAF 2018/12/19 06:40 UTC NOAA

TAF KPIE 190538Z 1906/2006 VRB04KT P6SM SCT250
FM191400 11006KT P6SM FEW090 SCT250
FM191800 14007KT P6SM SCT060 BKN150
FM192100 16008KT P6SM VCSH SCT030 BKN100
FM200200 12006KT P6SM SHRA BKN025 OVC060


Example: see airport list